Time;durP1;ratioP1;P1;durP2;ratioP2;P2;SDS_P1;SDS_P2;PMS_P1;PMS_P2;Temp;Humidity;BMP_temperature;BMP_pressure;BME280_temperature;BME280_humidity;BME280_pressure;Samples;Min_cycle;Max_cycle;Signal;HPM_P1;HPM_P2
2022/03/29 00:00:27;;;;;;;8.77;5.30;;;10.50;56.00;;;;;;4988184;28;20046;-79
2022/03/29 00:02:53;;;;;;;8.63;5.78;;;10.50;56.10;;;;;;4968299;28;20034;-79
2022/03/29 00:05:19;;;;;;;10.57;4.82;;;10.50;56.20;;;;;;4987302;28;20041;-80
2022/03/29 00:07:44;;;;;;;8.75;5.18;;;10.50;56.30;;;;;;4986943;28;20452;-78
2022/03/29 00:10:10;;;;;;;10.93;5.70;;;10.40;56.30;;;;;;4958087;28;20027;-78
2022/03/29 00:12:36;;;;;;;9.10;5.55;;;10.40;56.40;;;;;;4977345;28;20019;-81
2022/03/29 00:15:03;;;;;;;7.78;5.63;;;10.40;56.40;;;;;;4980756;28;20094;-80
2022/03/29 00:17:28;;;;;;;14.93;5.60;;;10.30;56.40;;;;;;4958881;28;20030;-78
2022/03/29 00:19:54;;;;;;;9.43;5.30;;;10.20;56.50;;;;;;4976041;28;20092;-80
2022/03/29 00:22:19;;;;;;;10.35;5.32;;;10.20;56.60;;;;;;5001680;28;20404;-78
2022/03/29 00:24:45;;;;;;;7.90;5.50;;;10.20;56.80;;;;;;4996146;28;20026;-78
2022/03/29 00:27:11;;;;;;;9.40;5.38;;;10.10;56.90;;;;;;4992079;28;20121;-80
2022/03/29 00:29:37;;;;;;;9.10;5.60;;;10.10;57.00;;;;;;4983880;28;20039;-79
2022/03/29 00:32:03;;;;;;;10.57;5.47;;;10.10;57.10;;;;;;5002279;28;20040;-81
2022/03/29 00:34:29;;;;;;;10.35;5.30;;;10.10;57.30;;;;;;4990953;28;20037;-78
2022/03/29 00:36:54;;;;;;;9.57;5.07;;;10.00;57.20;;;;;;4985616;28;20034;-81
2022/03/29 00:39:20;;;;;;;10.82;5.78;;;10.00;57.30;;;;;;5001858;28;20455;-78
2022/03/29 00:41:45;;;;;;;11.30;5.80;;;9.90;57.40;;;;;;4980874;28;20034;-79
2022/03/29 00:44:13;;;;;;;9.35;5.35;;;9.90;57.50;;;;;;4994779;28;20038;-78
2022/03/29 00:46:39;;;;;;;10.05;5.72;;;9.90;57.60;;;;;;5003480;28;20116;-79
2022/03/29 00:49:05;;;;;;;8.38;5.57;;;9.80;57.80;;;;;;4972277;28;20599;-79
2022/03/29 00:51:30;;;;;;;11.85;6.13;;;9.80;57.80;;;;;;5001938;28;20164;-80
2022/03/29 00:53:56;;;;;;;9.63;5.38;;;9.80;57.90;;;;;;4974451;28;20139;-80
2022/03/29 00:56:21;;;;;;;8.90;5.28;;;9.80;58.00;;;;;;5001260;28;20113;-78
2022/03/29 00:58:47;;;;;;;11.50;5.30;;;9.80;58.10;;;;;;4997617;28;20081;-78
2022/03/29 01:01:13;;;;;;;8.05;4.82;;;9.80;58.10;;;;;;4993496;28;20034;-78
2022/03/29 01:03:41;;;;;;;8.32;4.90;;;9.80;58.20;;;;;;4998380;28;20044;-79
2022/03/29 01:06:07;;;;;;;6.60;4.78;;;9.70;58.30;;;;;;4983848;28;20560;-80
2022/03/29 01:08:33;;;;;;;11.18;4.97;;;9.70;58.40;;;;;;5001307;28;20048;-78
2022/03/29 01:10:59;;;;;;;10.32;5.15;;;9.60;58.40;;;;;;4968779;28;20055;-78
2022/03/29 01:13:24;;;;;;;9.13;5.07;;;9.60;58.40;;;;;;4988517;28;20480;-78
2022/03/29 01:15:50;;;;;;;10.65;5.15;;;9.60;58.50;;;;;;4970542;28;20030;-80
2022/03/29 01:18:17;;;;;;;9.18;5.50;;;9.50;58.60;;;;;;4983911;28;20788;-79
2022/03/29 01:20:43;;;;;;;10.07;5.40;;;9.50;58.80;;;;;;4984144;28;20035;-77
2022/03/29 01:23:08;;;;;;;9.57;5.47;;;9.50;58.80;;;;;;4985220;28;20037;-81
2022/03/29 01:25:35;;;;;;;8.18;4.97;;;9.50;58.90;;;;;;4985016;28;20023;-78
2022/03/29 01:28:01;;;;;;;7.03;4.68;;;9.50;59.00;;;;;;5001949;28;20077;-80
2022/03/29 01:30:27;;;;;;;9.18;5.43;;;9.50;59.10;;;;;;4984695;28;20096;-79
2022/03/29 01:32:53;;;;;;;9.15;5.28;;;9.50;59.20;;;;;;4984546;28;20022;-81
2022/03/29 01:35:22;;;;;;;9.57;5.40;;;9.50;59.20;;;;;;5001543;28;20042;-78
2022/03/29 01:37:48;;;;;;;12.55;5.00;;;9.50;59.30;;;;;;4999459;28;20034;-80
2022/03/29 01:40:15;;;;;;;9.10;5.93;;;9.60;59.30;;;;;;4994662;28;20112;-80
2022/03/29 01:42:51;;;;;;;10.35;5.22;;;9.50;59.30;;;;;;4983285;28;20048;-80
2022/03/29 01:45:17;;;;;;;9.63;5.30;;;9.60;59.50;;;;;;5000525;28;20031;-78
2022/03/29 01:47:43;;;;;;;9.43;5.60;;;9.50;59.40;;;;;;4994196;28;20549;-79
2022/03/29 01:50:10;;;;;;;11.65;5.50;;;9.50;59.50;;;;;;4968388;28;20085;-78
2022/03/29 01:52:45;;;;;;;11.25;5.30;;;9.50;59.60;;;;;;5000598;28;20054;-79
2022/03/29 01:55:11;;;;;;;8.52;5.35;;;9.50;59.80;;;;;;4978426;28;20038;-80
2022/03/29 01:57:37;;;;;;;9.10;5.20;;;9.50;59.70;;;;;;4982331;28;20022;-79
2022/03/29 02:00:52;;;;;;;11.70;5.80;;;9.50;59.70;;;;;;4999542;28;20069;-81
2022/03/29 02:02:52;;;;;;;6.60;4.88;;;9.50;60.00;;;;;;4985452;28;20491;-81
2022/03/29 02:05:19;;;;;;;7.18;5.18;;;9.50;59.80;;;;;;4983481;28;20042;-78
2022/03/29 02:07:44;;;;;;;10.50;5.72;;;9.50;59.90;;;;;;4997914;28;20113;-79
2022/03/29 02:10:10;;;;;;;10.98;5.38;;;9.50;60.00;;;;;;4993064;28;20515;-79
2022/03/29 02:12:36;;;;;;;9.38;5.15;;;9.40;60.00;;;;;;4966803;28;20030;-78
2022/03/29 02:15:03;;;;;;;9.05;4.80;;;9.40;60.10;;;;;;4988497;28;20044;-80
2022/03/29 02:17:28;;;;;;;10.25;4.63;;;9.40;60.20;;;;;;4992413;28;20030;-78
2022/03/29 02:19:54;;;;;;;8.75;5.00;;;9.40;60.20;;;;;;4967159;28;20488;-81
2022/03/29 02:22:19;;;;;;;9.80;5.47;;;9.40;60.40;;;;;;4999931;28;20042;-78
2022/03/29 02:24:45;;;;;;;10.35;4.63;;;9.30;60.40;;;;;;4988881;28;20030;-77
2022/03/29 02:27:10;;;;;;;9.43;5.15;;;9.40;60.50;;;;;;4987508;28;20038;-80
2022/03/29 02:29:36;;;;;;;8.75;5.40;;;9.30;60.50;;;;;;4997089;28;20679;-78
2022/03/29 02:32:02;;;;;;;9.20;5.40;;;9.30;60.60;;;;;;4984346;28;20543;-80
2022/03/29 02:34:27;;;;;;;9.75;5.07;;;9.30;60.70;;;;;;4982543;28;20046;-78
2022/03/29 02:36:53;;;;;;;8.00;5.32;;;9.30;60.90;;;;;;4982395;28;20714;-80
2022/03/29 02:39:18;;;;;;;10.27;5.72;;;9.30;60.90;;;;;;4999328;28;20057;-78
2022/03/29 02:41:44;;;;;;;11.43;5.13;;;9.30;61.00;;;;;;4978881;28;20549;-79
2022/03/29 02:44:09;;;;;;;8.38;5.50;;;9.30;61.10;;;;;;4957696;28;20065;-80
2022/03/29 02:46:35;;;;;;;11.45;5.63;;;9.30;61.20;;;;;;4985074;28;20080;-79
2022/03/29 02:49:01;;;;;;;10.35;5.60;;;9.30;61.30;;;;;;4998499;28;20027;-78
2022/03/29 02:51:26;;;;;;;11.02;6.07;;;9.30;61.40;;;;;;5000860;28;20027;-78
2022/03/29 02:53:52;;;;;;;6.97;5.32;;;9.30;61.50;;;;;;4984722;28;20030;-79
2022/03/29 02:56:18;;;;;;;9.70;5.47;;;9.30;61.40;;;;;;4996481;28;20049;-79
2022/03/29 02:58:44;;;;;;;12.68;5.75;;;9.30;61.40;;;;;;4991479;28;20038;-79
2022/03/29 03:01:09;;;;;;;10.15;6.00;;;9.20;61.40;;;;;;4966400;28;20049;-78
2022/03/29 03:03:35;;;;;;;10.73;5.28;;;9.20;61.50;;;;;;4993065;28;20109;-80
2022/03/29 03:06:00;;;;;;;11.27;5.35;;;9.20;61.60;;;;;;4967111;28;20022;-77
2022/03/29 03:08:26;;;;;;;11.18;6.05;;;9.10;61.60;;;;;;4999834;28;20396;-79
2022/03/29 03:10:51;;;;;;;9.35;5.32;;;9.10;61.70;;;;;;4990377;28;20480;-79
2022/03/29 03:13:17;;;;;;;9.40;5.88;;;9.00;61.90;;;;;;4988770;28;20035;-79
2022/03/29 03:15:42;;;;;;;11.52;5.15;;;9.00;62.00;;;;;;5001097;28;20584;-77
2022/03/29 03:18:09;;;;;;;9.60;5.82;;;9.00;62.00;;;;;;4986493;28;20061;-80
2022/03/29 03:20:35;;;;;;;9.20;5.93;;;9.00;62.00;;;;;;4980640;28;20615;-78
2022/03/29 03:23:01;;;;;;;9.38;5.85;;;9.00;62.10;;;;;;4986687;28;20089;-80
2022/03/29 03:25:26;;;;;;;9.50;5.63;;;9.00;62.20;;;;;;4968199;28;20068;-80
2022/03/29 03:27:52;;;;;;;13.68;5.95;;;9.00;62.30;;;;;;5000176;28;20080;-80
2022/03/29 03:30:17;;;;;;;8.13;4.97;;;9.00;62.40;;;;;;4989651;28;20084;-78
2022/03/29 03:32:43;;;;;;;11.15;5.65;;;8.90;62.30;;;;;;4988696;28;20089;-79
2022/03/29 03:35:09;;;;;;;11.88;6.03;;;8.90;62.30;;;;;;4987472;28;20551;-80
2022/03/29 03:37:35;;;;;;;8.60;5.38;;;8.90;62.30;;;;;;4978335;28;20041;-81
2022/03/29 03:40:03;;;;;;;10.60;5.63;;;8.90;62.40;;;;;;4982791;28;20042;-80
2022/03/29 03:42:28;;;;;;;10.93;5.97;;;8.80;62.50;;;;;;4977662;28;20058;-77
2022/03/29 03:44:54;;;;;;;9.35;5.88;;;8.80;62.60;;;;;;4996493;28;20130;-80
2022/03/29 03:47:19;;;;;;;11.15;5.32;;;8.80;62.60;;;;;;4980201;28;20104;-80
2022/03/29 03:49:45;;;;;;;8.75;5.50;;;8.80;62.70;;;;;;4969688;28;20031;-79
2022/03/29 03:52:10;;;;;;;9.90;5.40;;;8.70;62.70;;;;;;4986739;28;20115;-81
2022/03/29 03:54:36;;;;;;;8.68;5.32;;;8.70;62.80;;;;;;4983657;28;20030;-79
2022/03/29 03:57:02;;;;;;;9.85;6.10;;;8.60;62.90;;;;;;4971339;28;20038;-83
2022/03/29 03:59:27;;;;;;;11.13;5.47;;;8.60;63.00;;;;;;4953465;28;20042;-80
2022/03/29 04:01:53;;;;;;;10.85;6.30;;;8.60;63.10;;;;;;4975691;28;20049;-82
2022/03/29 04:04:18;;;;;;;11.05;6.53;;;8.60;63.20;;;;;;4984609;28;20034;-81
2022/03/29 04:06:44;;;;;;;12.55;6.53;;;8.60;63.20;;;;;;5007119;28;20035;-79
2022/03/29 04:09:10;;;;;;;12.85;6.32;;;8.60;63.20;;;;;;5002122;28;20113;-81
2022/03/29 04:11:35;;;;;;;10.02;6.10;;;8.60;63.30;;;;;;4958455;28;20983;-80
2022/03/29 04:14:01;;;;;;;11.95;6.07;;;8.50;63.30;;;;;;4953508;28;20034;-80
2022/03/29 04:16:27;;;;;;;9.27;5.60;;;8.50;63.40;;;;;;4971181;28;20050;-80
2022/03/29 04:18:52;;;;;;;9.93;6.22;;;8.50;63.50;;;;;;4979234;28;20044;-80
2022/03/29 04:21:18;;;;;;;10.27;6.45;;;8.50;63.60;;;;;;4986657;28;20026;-79
2022/03/29 04:23:43;;;;;;;10.27;6.03;;;8.40;63.60;;;;;;4967748;28;20212;-79
2022/03/29 04:26:09;;;;;;;9.25;6.32;;;8.40;63.70;;;;;;4971807;28;20401;-78
2022/03/29 04:28:35;;;;;;;10.73;5.97;;;8.40;63.80;;;;;;4972529;28;20066;-79
2022/03/29 04:31:00;;;;;;;9.88;6.15;;;8.40;63.80;;;;;;4969805;28;20027;-80
2022/03/29 04:33:26;;;;;;;8.88;5.68;;;8.40;63.90;;;;;;4983393;28;20026;-79
2022/03/29 04:35:52;;;;;;;8.88;5.90;;;8.40;64.00;;;;;;4973896;28;20416;-79
2022/03/29 04:38:20;;;;;;;11.98;6.25;;;8.40;64.00;;;;;;4992900;28;20027;-79
2022/03/29 04:40:46;;;;;;;10.35;6.15;;;8.30;64.00;;;;;;4963385;28;20069;-79
2022/03/29 04:43:11;;;;;;;10.95;5.93;;;8.30;64.20;;;;;;4956820;28;20039;-80
2022/03/29 04:45:37;;;;;;;10.75;6.00;;;8.30;64.30;;;;;;4989289;28;20027;-79
2022/03/29 04:48:03;;;;;;;9.73;6.38;;;8.30;64.30;;;;;;4978030;28;20769;-79
2022/03/29 04:50:29;;;;;;;11.60;6.95;;;8.30;64.30;;;;;;4981590;28;20613;-80
2022/03/29 04:52:55;;;;;;;14.20;7.45;;;8.30;64.40;;;;;;4989068;28;20082;-80
2022/03/29 04:55:20;;;;;;;19.15;7.70;;;8.20;64.50;;;;;;4969964;28;20057;-80
2022/03/29 04:57:47;;;;;;;12.80;6.80;;;8.20;64.60;;;;;;4978834;28;20064;-79
2022/03/29 05:00:14;;;;;;;11.25;6.60;;;8.20;64.70;;;;;;4962514;28;20061;-81
2022/03/29 05:02:40;;;;;;;9.88;6.28;;;8.20;64.70;;;;;;4947844;28;20114;-79
2022/03/29 05:05:06;;;;;;;14.15;6.68;;;8.20;64.80;;;;;;4988983;28;20042;-79
2022/03/29 05:07:32;;;;;;;11.55;6.00;;;8.20;64.80;;;;;;4989014;28;20248;-80
2022/03/29 05:09:57;;;;;;;16.42;6.63;;;8.20;64.90;;;;;;4944688;28;20058;-80
2022/03/29 05:12:23;;;;;;;9.07;6.22;;;8.20;64.90;;;;;;4978626;28;20582;-79
2022/03/29 05:14:49;;;;;;;15.38;6.93;;;8.20;65.00;;;;;;4990102;28;20058;-80
2022/03/29 05:17:15;;;;;;;9.30;5.13;;;8.20;65.00;;;;;;4989925;28;20041;-80
2022/03/29 05:19:40;;;;;;;11.55;6.60;;;8.20;65.00;;;;;;4963993;28;20524;-80
2022/03/29 05:22:06;;;;;;;12.52;6.40;;;8.20;65.00;;;;;;4994146;28;20497;-80
2022/03/29 05:24:31;;;;;;;9.65;5.93;;;8.20;65.10;;;;;;4975396;28;21955;-80
2022/03/29 05:26:57;;;;;;;10.30;6.35;;;8.20;65.20;;;;;;4995230;28;20034;-81
2022/03/29 05:29:25;;;;;;;9.75;6.90;;;8.20;65.30;;;;;;4998406;28;20034;-80
2022/03/29 05:31:50;;;;;;;14.60;7.40;;;8.20;65.20;;;;;;4993910;28;20050;-80
2022/03/29 05:34:16;;;;;;;11.25;6.65;;;8.20;65.30;;;;;;4998233;28;20216;-80
2022/03/29 05:36:44;;;;;;;15.43;6.57;;;8.20;65.40;;;;;;4997324;28;20038;-79
2022/03/29 05:39:16;;;;;;;10.95;6.45;;;8.20;65.40;;;;;;5006844;28;20098;-80
2022/03/29 05:41:42;;;;;;;13.40;6.70;;;8.20;65.60;;;;;;4983180;28;20027;-80
2022/03/29 05:44:08;;;;;;;12.52;6.15;;;8.20;65.50;;;;;;5007838;28;20054;-80
2022/03/29 05:49:20;;;;;;;11.02;6.65;;;8.20;65.50;;;;;;4996714;28;20093;-80
2022/03/29 05:51:46;;;;;;;14.77;6.32;;;8.20;65.60;;;;;;4991470;28;20041;-79
2022/03/29 05:54:11;;;;;;;10.00;7.13;;;8.20;65.60;;;;;;5009477;28;20129;-80
2022/03/29 05:56:37;;;;;;;11.13;6.50;;;8.20;65.70;;;;;;4997946;28;20524;-80
2022/03/29 05:59:02;;;;;;;14.15;6.78;;;8.20;65.80;;;;;;5002958;28;20550;-81
2022/03/29 06:01:28;;;;;;;19.38;8.07;;;8.20;65.80;;;;;;4979067;28;20031;-78
2022/03/29 06:03:53;;;;;;;11.50;7.07;;;8.20;66.00;;;;;;4995775;28;20527;-79
2022/03/29 06:06:19;;;;;;;12.55;7.00;;;8.20;66.10;;;;;;4993476;28;20034;-80
2022/03/29 06:08:44;;;;;;;14.88;8.05;;;8.20;66.10;;;;;;4998616;28;20031;-79
2022/03/29 06:11:10;;;;;;;14.18;7.32;;;8.20;66.30;;;;;;4995968;28;20408;-80
2022/03/29 06:13:36;;;;;;;14.52;7.05;;;8.20;67.10;;;;;;4992649;28;20057;-80
2022/03/29 06:16:02;;;;;;;11.35;7.18;;;8.20;66.40;;;;;;5000180;28;20029;-80
2022/03/29 06:18:28;;;;;;;14.30;6.97;;;8.30;66.50;;;;;;4994294;28;20102;-80
2022/03/29 06:20:54;;;;;;;12.13;7.55;;;8.30;66.50;;;;;;4985604;28;20673;-79
2022/03/29 06:23:19;;;;;;;11.13;6.20;;;8.40;66.70;;;;;;5000252;28;20049;-80
2022/03/29 06:25:46;;;;;;;11.75;7.32;;;8.40;66.70;;;;;;4994821;28;20034;-78
2022/03/29 06:28:12;;;;;;;16.75;10.68;;;8.50;66.70;;;;;;5015143;28;20541;-80
2022/03/29 06:30:38;;;;;;;18.15;10.45;;;8.50;66.70;;;;;;4998426;28;20039;-79
2022/03/29 06:33:04;;;;;;;19.75;10.65;;;8.60;66.80;;;;;;4991696;28;20053;-80
2022/03/29 06:35:31;;;;;;;18.90;9.55;;;8.60;66.80;;;;;;4998272;28;20034;-79
2022/03/29 06:37:58;;;;;;;25.60;10.85;;;8.70;66.80;;;;;;5006678;28;20041;-79
2022/03/29 06:40:24;;;;;;;24.90;10.30;;;8.70;66.90;;;;;;4982120;28;20034;-80
2022/03/29 06:42:50;;;;;;;26.05;10.13;;;8.70;66.90;;;;;;4973905;28;20038;-80
2022/03/29 06:45:16;;;;;;;15.13;8.90;;;8.80;67.00;;;;;;4993184;28;20037;-79
2022/03/29 06:47:41;;;;;;;13.90;9.70;;;8.80;67.00;;;;;;4991907;28;20038;-79
2022/03/29 06:50:08;;;;;;;19.35;8.57;;;8.90;67.10;;;;;;5002699;28;20039;-80
2022/03/29 06:52:37;;;;;;;20.35;9.40;;;8.90;67.00;;;;;;4995929;28;20558;-80
2022/03/29 06:55:04;;;;;;;20.15;9.15;;;8.90;67.10;;;;;;5012006;28;20049;-81
2022/03/29 06:57:30;;;;;;;19.15;10.18;;;9.00;67.20;;;;;;5000050;28;20045;-81
2022/03/29 06:59:55;;;;;;;20.58;10.00;;;9.00;67.10;;;;;;4992852;28;20038;-79
2022/03/29 07:02:21;;;;;;;16.23;8.00;;;9.10;67.20;;;;;;4991242;28;20027;-79
2022/03/29 07:04:47;;;;;;;16.58;8.65;;;9.10;67.10;;;;;;4992841;28;20042;-80
2022/03/29 07:07:13;;;;;;;13.98;8.73;;;9.20;67.20;;;;;;4990190;28;20043;-80
2022/03/29 07:12:23;;;;;;;15.23;8.75;;;9.30;67.20;;;;;;5008787;28;20041;-79
2022/03/29 07:14:48;;;;;;;24.90;9.75;;;9.30;67.00;;;;;;5004794;28;20043;-79
2022/03/29 07:17:16;;;;;;;25.70;8.32;;;9.40;67.10;;;;;;4998227;28;20104;-79
2022/03/29 07:19:41;;;;;;;20.98;9.50;;;9.40;67.10;;;;;;4994103;28;20038;-80
2022/03/29 07:22:07;;;;;;;18.73;8.70;;;9.50;67.00;;;;;;4990796;28;20385;-79
2022/03/29 07:24:33;;;;;;;20.17;8.32;;;9.50;67.00;;;;;;4989182;28;20122;-80
2022/03/29 07:26:58;;;;;;;22.63;8.43;;;9.60;67.00;;;;;;4983766;28;20038;-79
2022/03/29 07:29:25;;;;;;;17.42;8.40;;;9.60;67.00;;;;;;4973880;28;20042;-80
2022/03/29 07:31:51;;;;;;;21.63;9.55;;;9.60;67.00;;;;;;4992065;28;20129;-79
2022/03/29 07:34:16;;;;;;;18.42;8.35;;;9.70;67.10;;;;;;4983175;28;20058;-79
2022/03/29 07:36:42;;;;;;;17.40;8.45;;;9.70;67.10;;;;;;4993093;28;20042;-79
2022/03/29 07:39:08;;;;;;;20.83;8.68;;;9.70;67.10;;;;;;4992710;28;20042;-80
2022/03/29 07:41:33;;;;;;;16.27;7.32;;;9.80;67.10;;;;;;4966793;28;20046;-81
2022/03/29 07:43:59;;;;;;;12.95;8.05;;;9.90;67.00;;;;;;4994497;28;20109;-80
2022/03/29 07:46:25;;;;;;;18.20;9.40;;;10.00;66.80;;;;;;4990486;28;20045;-79
2022/03/29 07:48:51;;;;;;;11.07;6.90;;;10.00;66.70;;;;;;4984375;28;20112;-80
2022/03/29 07:51:17;;;;;;;20.98;8.80;;;10.10;66.70;;;;;;4977608;28;20038;-80
2022/03/29 07:53:43;;;;;;;16.77;8.43;;;10.30;66.70;;;;;;4979332;28;20031;-79
2022/03/29 07:56:08;;;;;;;14.30;8.57;;;10.30;66.50;;;;;;4991041;28;20393;-79
2022/03/29 07:58:34;;;;;;;18.92;11.30;;;10.40;66.30;;;;;;4989463;28;20053;-80
2022/03/29 08:01:00;;;;;;;23.52;12.88;;;10.50;66.10;;;;;;4993636;28;20026;-80
2022/03/29 08:03:32;;;;;;;22.65;10.63;;;10.60;66.10;;;;;;4963131;28;20098;-79
2022/03/29 08:05:57;;;;;;;;;;;10.70;66.00;;;;;;4995637;28;20106;-80
2022/03/29 08:08:23;;;;;;;27.35;12.45;;;10.70;65.60;;;;;;4989398;28;19957;-79
2022/03/29 08:10:49;;;;;;;19.17;10.63;;;10.80;65.40;;;;;;4980396;28;20074;-79
2022/03/29 08:13:15;;;;;;;29.30;12.30;;;10.90;65.30;;;;;;4978295;28;20038;-80
2022/03/29 08:15:43;;;;;;;21.63;10.90;;;11.00;65.20;;;;;;4989757;28;20113;-80
2022/03/29 08:18:08;;;;;;;18.80;10.68;;;11.00;65.20;;;;;;4981271;28;20125;-80
2022/03/29 08:20:34;;;;;;;22.58;10.75;;;11.10;65.20;;;;;;4993132;28;20130;-80
2022/03/29 08:23:00;;;;;;;27.42;11.60;;;11.20;65.00;;;;;;5001715;28;20045;-79
2022/03/29 08:25:27;;;;;;;21.52;10.38;;;11.30;64.90;;;;;;4995764;28;20038;-80
2022/03/29 08:27:55;;;;;;;20.70;10.88;;;11.40;65.00;;;;;;5012351;28;20711;-80
2022/03/29 08:30:21;;;;;;;19.05;9.65;;;11.50;64.80;;;;;;5014395;28;20057;-80
2022/03/29 08:32:46;;;;;;;20.23;10.80;;;11.60;64.70;;;;;;4977422;28;20046;-80
2022/03/29 08:35:12;;;;;;;22.10;11.02;;;11.70;64.40;;;;;;4998042;28;20053;-80
2022/03/29 08:37:39;;;;;;;22.25;10.60;;;11.80;64.20;;;;;;4984713;28;20052;-80
2022/03/29 08:40:06;;;;;;;23.67;10.38;;;12.00;64.10;;;;;;4988500;28;20035;-79
2022/03/29 08:42:31;;;;;;;18.02;10.88;;;12.10;64.00;;;;;;5022570;28;20026;-79
2022/03/29 08:44:58;;;;;;;18.00;10.02;;;12.20;63.70;;;;;;5004011;28;20053;-80
2022/03/29 08:47:24;;;;;;;22.40;10.55;;;12.40;63.60;;;;;;5009460;28;20119;-79
2022/03/29 08:49:50;;;;;;;25.73;11.55;;;12.50;63.30;;;;;;4996594;28;20643;-79
2022/03/29 08:52:17;;;;;;;19.73;10.25;;;12.60;63.10;;;;;;4996972;28;20033;-79
2022/03/29 08:54:43;;;;;;;29.02;12.25;;;12.70;62.80;;;;;;4994937;28;20037;-80
2022/03/29 08:57:10;;;;;;;27.63;12.18;;;12.80;62.70;;;;;;5000628;28;20033;-79
2022/03/29 08:59:36;;;;;;;18.73;10.52;;;12.90;62.60;;;;;;5013762;28;20033;-79
2022/03/29 09:02:11;;;;;;;26.85;13.30;;;13.00;62.50;;;;;;5006687;28;20050;-79
2022/03/29 09:04:37;;;;;;;27.90;12.07;;;13.10;62.20;;;;;;4999720;28;20464;-78
2022/03/29 09:07:02;;;;;;;23.85;11.50;;;13.20;61.90;;;;;;4998468;28;20048;-80
2022/03/29 09:09:29;;;;;;;23.15;12.40;;;13.30;61.60;;;;;;4983998;28;20655;-79
2022/03/29 09:11:58;;;;;;;23.58;11.20;;;13.40;61.40;;;;;;4991332;28;20509;-79
2022/03/29 09:14:29;;;;;;;29.30;13.05;;;13.50;61.20;;;;;;4982817;28;20076;-79
2022/03/29 09:16:54;;;;;;;25.33;11.52;;;13.60;60.90;;;;;;5007470;28;20037;-79
2022/03/29 09:19:23;;;;;;;24.15;12.82;;;13.70;60.60;;;;;;4998345;28;20045;-79
2022/03/29 09:21:49;;;;;;;27.17;13.38;;;13.80;60.40;;;;;;5007001;28;20042;-79
2022/03/29 09:24:16;;;;;;;25.40;14.35;;;13.90;60.30;;;;;;5011963;28;20037;-79
2022/03/29 09:26:46;;;;;;;25.40;13.18;;;13.90;60.10;;;;;;5007714;28;20288;-79
2022/03/29 09:29:15;;;;;;;20.80;12.75;;;14.10;60.00;;;;;;4995627;28;20026;-80
2022/03/29 09:31:40;;;;;;;29.70;13.70;;;14.10;59.90;;;;;;4999600;28;20038;-79
2022/03/29 09:34:20;;;;;;;21.70;10.82;;;14.20;59.70;;;;;;4998080;28;20038;-80
2022/03/29 09:36:50;;;;;;;20.05;10.75;;;14.30;59.30;;;;;;5018748;28;20050;-79
2022/03/29 09:39:51;;;;;;;25.85;11.60;;;14.40;59.20;;;;;;5000957;28;20037;-80
2022/03/29 09:42:19;;;;;;;19.83;11.68;;;14.60;58.70;;;;;;4923625;29;20082;-80
2022/03/29 09:44:48;;;;;;;24.40;11.13;;;14.70;58.70;;;;;;4917258;29;20036;-80
2022/03/29 09:47:15;;;;;;;17.08;10.07;;;14.80;58.50;;;;;;4936918;29;20050;-79
2022/03/29 09:50:01;;;;;;;21.27;10.55;;;14.90;58.40;;;;;;4907397;29;20051;-79
2022/03/29 09:52:28;;;;;;;18.83;10.15;;;15.00;57.90;;;;;;4920439;29;20131;-80
2022/03/29 09:55:09;;;;;;;22.23;12.43;;;15.10;57.90;;;;;;4936391;28;20629;-79
2022/03/29 09:57:48;;;;;;;;;;;15.20;57.40;;;;;;4932797;29;20425;-79
2022/03/29 10:00:36;;;;;;;17.67;9.80;;;15.30;57.50;;;;;;4922962;29;19919;-79
2022/03/29 10:03:02;;;;;;;27.27;11.95;;;15.40;57.00;;;;;;4917487;29;20899;-79
2022/03/29 10:05:28;;;;;;;18.25;9.88;;;15.50;57.10;;;;;;4913488;29;20043;-79
2022/03/29 10:10:48;;;;;;;20.08;11.10;;;15.50;56.30;;;;;;4922858;28;20072;-79
2022/03/29 10:13:14;;;;;;;22.15;11.90;;;15.60;56.40;;;;;;4908369;29;20047;-79
2022/03/29 10:15:41;;;;;;;21.30;11.02;;;15.70;56.20;;;;;;4945833;28;20041;-79
2022/03/29 10:18:07;;;;;;;24.67;11.27;;;15.80;56.00;;;;;;4972567;28;20035;-80
2022/03/29 10:20:33;;;;;;;17.92;9.93;;;15.90;55.80;;;;;;5009219;28;20111;-79
2022/03/29 10:22:59;;;;;;;22.40;11.43;;;16.00;55.70;;;;;;5004533;28;20046;-79
2022/03/29 10:25:24;;;;;;;17.60;10.10;;;16.10;55.50;;;;;;4997071;28;20087;-79
2022/03/29 10:27:50;;;;;;;26.52;13.55;;;16.20;55.20;;;;;;5013210;28;20045;-79
2022/03/29 10:30:37;;;;;;;22.48;11.95;;;16.20;55.00;;;;;;5008633;28;20037;-79
2022/03/29 10:33:16;;;;;;;24.58;13.18;;;16.30;54.40;;;;;;4984751;28;20041;-79
2022/03/29 10:36:02;;;;;;;22.40;12.05;;;16.40;54.10;;;;;;5018697;28;20038;-79
2022/03/29 10:38:48;;;;;;;24.60;12.15;;;16.50;54.00;;;;;;5006283;28;20042;-79
2022/03/29 10:41:28;;;;;;;21.75;12.05;;;16.60;53.80;;;;;;5010573;28;20659;-80
2022/03/29 10:44:08;;;;;;;27.35;12.23;;;16.70;53.70;;;;;;5012860;28;20430;-79
2022/03/29 10:46:45;;;;;;;22.15;11.88;;;16.80;53.50;;;;;;5001422;28;20052;-79
2022/03/29 10:49:34;;;;;;;24.25;12.13;;;16.90;53.40;;;;;;5020111;28;20038;-79
2022/03/29 10:52:05;;;;;;;29.23;12.68;;;17.10;52.60;;;;;;5012731;28;20033;-79
2022/03/29 10:54:32;;;;;;;17.92;10.80;;;17.20;52.60;;;;;;5017994;28;20492;-79
2022/03/29 10:57:06;;;;;;;23.25;13.00;;;17.30;52.60;;;;;;4992361;28;20699;-79
2022/03/29 10:59:33;;;;;;;21.50;12.02;;;17.40;52.20;;;;;;5002725;28;20038;-79
2022/03/29 11:02:16;;;;;;;18.00;11.07;;;17.60;52.00;;;;;;5018340;28;20055;-79
2022/03/29 11:05:01;;;;;;;21.17;11.32;;;17.70;51.70;;;;;;5021166;28;20498;-80
2022/03/29 11:07:26;;;;;;;21.70;10.90;;;17.90;51.40;;;;;;4984082;28;20107;-79
2022/03/29 11:10:19;;;;;;;23.23;11.68;;;18.10;51.50;;;;;;4995644;28;20828;-79
2022/03/29 11:12:49;;;;;;;23.75;11.23;;;18.30;50.70;;;;;;4989536;28;20127;-79
2022/03/29 11:15:24;;;;;;;17.13;7.70;;;18.50;50.90;;;;;;4999896;28;20122;-79
2022/03/29 11:17:53;;;;;;;29.75;12.18;;;18.60;50.50;;;;;;5014239;28;20026;-80
2022/03/29 11:20:32;;;;;;;24.60;11.02;;;18.70;50.40;;;;;;4992517;28;20066;-80
2022/03/29 11:23:04;;;;;;;16.45;8.32;;;18.90;49.90;;;;;;4978655;28;20061;-79
2022/03/29 11:25:30;;;;;;;16.02;8.27;;;19.00;50.00;;;;;;4982624;28;20039;-79
2022/03/29 11:28:09;;;;;;;17.98;8.50;;;19.20;49.80;;;;;;4975710;28;20101;-79
2022/03/29 11:30:35;;;;;;;20.55;9.93;;;19.40;49.10;;;;;;4991664;28;20527;-80
2022/03/29 11:33:05;;;;;;;17.27;8.85;;;19.60;49.10;;;;;;4992740;28;20046;-80
2022/03/29 11:35:32;;;;;;;15.80;9.00;;;19.70;48.50;;;;;;4999595;28;20057;-80
2022/03/29 11:38:15;;;;;;;16.05;9.70;;;19.80;48.30;;;;;;4984854;28;20045;-79
2022/03/29 11:40:41;;;;;;;13.50;7.65;;;19.90;47.50;;;;;;4983763;28;20034;-80
2022/03/29 11:43:10;;;;;;;17.75;8.75;;;20.00;47.60;;;;;;4997358;28;20076;-80
2022/03/29 11:45:41;;;;;;;13.80;7.72;;;20.10;47.50;;;;;;4974717;28;20460;-80
2022/03/29 11:48:12;;;;;;;14.63;8.52;;;20.30;47.10;;;;;;4958794;28;20039;-80
2022/03/29 11:50:43;;;;;;;16.33;8.98;;;20.40;46.90;;;;;;4978078;28;20042;-80
2022/03/29 11:53:26;;;;;;;20.25;8.07;;;20.50;46.50;;;;;;4983756;28;20034;-80
2022/03/29 11:56:01;;;;;;;11.10;6.25;;;20.70;46.10;;;;;;4988163;28;20077;-80
2022/03/29 11:58:31;;;;;;;13.60;7.07;;;20.70;46.10;;;;;;4989255;28;20058;-80
2022/03/29 12:01:13;;;;;;;14.13;7.40;;;20.80;46.20;;;;;;4983281;28;20050;-81
2022/03/29 12:03:42;;;;;;;13.13;7.18;;;20.90;45.80;;;;;;4967166;28;20036;-80
2022/03/29 12:06:12;;;;;;;17.95;8.23;;;21.00;45.80;;;;;;4989281;28;20035;-80
2022/03/29 12:08:58;;;;;;;14.43;7.97;;;21.00;45.50;;;;;;4980487;28;20565;-80
2022/03/29 12:11:28;;;;;;;13.68;7.20;;;21.00;44.40;;;;;;4976195;28;20816;-80
2022/03/29 12:14:11;;;;;;;17.52;7.32;;;21.00;44.80;;;;;;4986478;28;20057;-80
2022/03/29 12:16:41;;;;;;;15.63;8.27;;;21.10;44.50;;;;;;4983630;28;20674;-80
2022/03/29 12:19:26;;;;;;;18.92;8.35;;;21.10;44.50;;;;;;4975806;28;20089;-80
2022/03/29 12:22:02;;;;;;;12.60;7.07;;;21.20;43.90;;;;;;5015295;28;20047;-80
2022/03/29 12:24:35;;;;;;;10.93;6.80;;;21.30;44.50;;;;;;5012042;28;20084;-81
2022/03/29 12:27:06;;;;;;;15.02;7.22;;;21.30;44.10;;;;;;4994363;28;20495;-80
2022/03/29 12:29:34;;;;;;;11.98;6.65;;;21.40;44.10;;;;;;5006849;28;20034;-80
2022/03/29 12:32:01;;;;;;;12.73;6.63;;;21.50;43.90;;;;;;4995555;28;20089;-80
2022/03/29 12:34:28;;;;;;;11.35;6.93;;;21.60;43.60;;;;;;5001624;28;20352;-80
2022/03/29 12:36:57;;;;;;;14.23;7.70;;;21.60;43.50;;;;;;5009976;28;20041;-80
2022/03/29 12:39:22;;;;;;;11.43;6.78;;;21.70;43.40;;;;;;4999408;28;20044;-80
2022/03/29 12:41:48;;;;;;;10.25;6.55;;;21.70;43.20;;;;;;5008019;28;20033;-80
2022/03/29 12:44:49;;;;;;;13.57;7.25;;;21.80;43.00;;;;;;5006243;28;20116;-80
2022/03/29 12:47:16;;;;;;;13.57;6.13;;;21.80;42.20;;;;;;4972159;28;20037;-81
2022/03/29 12:49:41;;;;;;;10.05;5.32;;;21.80;42.60;;;;;;5014463;28;20040;-80
2022/03/29 12:52:11;;;;;;;14.82;6.72;;;21.80;42.50;;;;;;5000188;28;20042;-80
2022/03/29 12:54:41;;;;;;;11.48;6.20;;;21.90;42.20;;;;;;5004628;28;20045;-80